createdAt,value
2022-08-19T00:00:59.958Z,15.00
2022-08-19T00:06:02.841Z,15.20
2022-08-19T00:11:07.130Z,15.93
2022-08-19T00:16:14.228Z,17.42
2022-08-19T00:21:17.058Z,17.13
2022-08-19T00:26:21.479Z,16.40
2022-08-19T00:31:26.311Z,16.48
2022-08-19T00:36:29.484Z,18.30
2022-08-19T00:46:37.664Z,18.70
2022-08-19T00:51:41.329Z,17.17
2022-08-19T00:56:47.118Z,17.90
2022-08-19T01:01:49.892Z,17.83
2022-08-19T01:06:52.841Z,17.88
2022-08-19T01:11:58.366Z,17.52
2022-08-19T01:17:01.568Z,17.73
2022-08-19T01:27:21.008Z,17.15
2022-08-19T01:32:33.629Z,18.83
2022-08-19T01:37:44.999Z,18.63
2022-08-19T01:42:50.032Z,20.23
2022-08-19T01:48:02.243Z,18.15
2022-08-19T01:53:08.286Z,19.67
2022-08-19T01:58:15.304Z,19.85
2022-08-19T02:03:18.373Z,21.25
2022-08-19T02:08:21.014Z,19.65
2022-08-19T02:13:26.327Z,19.40
2022-08-19T02:18:29.370Z,19.98
2022-08-19T02:23:33.416Z,20.75
2022-08-19T02:28:37.418Z,21.45
2022-08-19T02:33:40.213Z,21.77
2022-08-19T02:38:43.419Z,19.55
2022-08-19T02:44:29.101Z,19.80
2022-08-19T02:49:23.081Z,21.83
2022-08-19T02:54:25.662Z,23.55
2022-08-19T02:59:31.650Z,23.83
2022-08-19T03:04:34.310Z,21.92
2022-08-19T03:09:38.973Z,22.15
2022-08-19T03:14:42.961Z,22.67
2022-08-19T03:19:45.724Z,19.13
2022-08-19T03:24:48.526Z,18.92
2022-08-19T03:29:52.491Z,19.08
2022-08-19T03:34:55.074Z,19.30
2022-08-19T03:39:57.728Z,17.43
2022-08-19T03:45:01.991Z,17.85
2022-08-19T03:50:05.151Z,17.55
2022-08-19T03:55:08.766Z,19.08
2022-08-19T04:00:14.591Z,21.83
2022-08-19T04:05:17.378Z,21.90
2022-08-19T04:10:21.180Z,21.38
2022-08-19T04:15:25.169Z,21.10
2022-08-19T04:20:27.837Z,18.52
2022-08-19T04:25:30.475Z,18.73
2022-08-19T04:30:40.039Z,19.65
2022-08-19T04:35:45.187Z,19.80
2022-08-19T04:41:03.903Z,17.60
2022-08-19T04:46:08.965Z,16.90
2022-08-19T04:51:14.588Z,16.83
2022-08-19T04:56:22.631Z,16.48
2022-08-19T05:01:30.631Z,16.42
2022-08-19T05:06:34.665Z,16.38
2022-08-19T05:11:40.068Z,19.42
2022-08-19T05:16:44.151Z,19.98
2022-08-19T05:22:04.179Z,18.30
2022-08-19T05:27:07.488Z,19.20
2022-08-19T05:37:14.423Z,20.27
2022-08-19T05:42:17.623Z,18.75
2022-08-19T05:52:26.144Z,18.45
2022-08-19T05:57:29.829Z,18.05
2022-08-19T06:02:34.247Z,19.38
2022-08-19T06:07:37.745Z,20.50
2022-08-19T06:12:40.444Z,20.70
2022-08-19T06:17:46.208Z,21.05
2022-08-19T06:22:51.105Z,21.35
2022-08-19T06:28:14.179Z,20.60
2022-08-19T06:33:17.939Z,18.17
2022-08-19T06:38:24.488Z,18.77
2022-08-19T06:43:28.068Z,17.00
2022-08-19T06:48:35.553Z,15.90
2022-08-19T06:53:41.162Z,14.98
2022-08-19T06:58:45.529Z,15.40
2022-08-19T07:03:49.680Z,15.25
2022-08-19T07:08:53.125Z,16.33
2022-08-19T07:13:58.984Z,14.75
2022-08-19T07:19:12.550Z,15.00
2022-08-19T07:24:19.557Z,15.48
2022-08-19T07:29:25.871Z,15.35
2022-08-19T07:34:35.690Z,16.42
2022-08-19T07:39:40.345Z,14.68
2022-08-19T07:44:49.987Z,16.20
2022-08-19T07:49:54.854Z,15.07
2022-08-19T07:54:58.315Z,14.40
2022-08-19T08:00:01.518Z,14.27
2022-08-19T08:05:24.049Z,13.90
2022-08-19T08:10:26.937Z,14.23
2022-08-19T08:15:29.934Z,14.48
2022-08-19T08:20:34.022Z,13.70
2022-08-19T08:25:38.883Z,13.15
2022-08-19T08:30:45.117Z,14.65
2022-08-19T08:35:49.691Z,13.27
2022-08-19T08:40:57.472Z,12.55
2022-08-19T08:46:04.974Z,13.02
2022-08-19T08:51:13.349Z,13.02
2022-08-19T08:56:16.919Z,11.55
2022-08-19T09:01:20.195Z,10.55
2022-08-19T09:06:31.328Z,9.40
2022-08-19T09:11:46.359Z,8.87
2022-08-19T09:16:49.405Z,10.27
2022-08-19T09:21:53.624Z,8.55
2022-08-19T09:26:59.731Z,9.35
2022-08-19T09:32:02.473Z,10.80
2022-08-19T09:37:07.379Z,12.38
2022-08-19T09:42:13.358Z,14.20
2022-08-19T09:47:20.066Z,13.45
2022-08-19T09:52:32.685Z,14.50
2022-08-19T09:57:36.197Z,12.27
2022-08-19T10:02:38.970Z,13.40
2022-08-19T10:07:44.193Z,12.95
2022-08-19T10:12:48.848Z,12.52
2022-08-19T10:17:55.399Z,13.60
2022-08-19T10:23:00.453Z,13.10
2022-08-19T10:28:05.508Z,14.80
2022-08-19T10:33:14.975Z,11.07
2022-08-19T10:38:19.069Z,11.88
2022-08-19T10:43:36.833Z,14.55
2022-08-19T10:48:39.596Z,12.52
2022-08-19T10:53:45.406Z,12.30
2022-08-19T10:58:49.668Z,14.57
2022-08-19T11:03:52.433Z,14.73
2022-08-19T11:08:57.094Z,13.43
2022-08-19T11:14:00.690Z,14.57
2022-08-19T11:19:03.837Z,12.70
2022-08-19T11:24:10.605Z,13.45
2022-08-19T11:29:15.462Z,10.43
2022-08-19T11:34:20.959Z,12.65
2022-08-19T11:39:25.020Z,10.45
2022-08-19T11:44:31.402Z,8.38
2022-08-19T11:49:37.334Z,10.68
2022-08-19T11:54:41.543Z,8.13
2022-08-19T11:59:44.607Z,8.27
2022-08-19T12:04:47.356Z,7.63
2022-08-19T12:09:51.659Z,7.97
2022-08-19T12:14:59.110Z,11.38
2022-08-19T12:20:02.817Z,8.57
2022-08-19T12:25:08.154Z,8.75
2022-08-19T12:30:14.320Z,8.20
2022-08-19T12:35:17.011Z,8.23
2022-08-19T12:40:21.404Z,9.07
2022-08-19T12:45:24.899Z,11.93
2022-08-19T12:50:28.877Z,11.38
2022-08-19T12:55:33.112Z,11.50
2022-08-19T13:00:36.152Z,11.38
2022-08-19T13:05:38.935Z,9.70
2022-08-19T13:10:43.382Z,8.90
2022-08-19T13:15:46.618Z,8.10
2022-08-19T13:20:52.635Z,6.95
2022-08-19T13:26:00.986Z,6.88
2022-08-19T13:31:21.166Z,8.13
2022-08-19T13:36:23.794Z,6.80
2022-08-19T13:41:28.592Z,6.47
2022-08-19T13:46:32.187Z,7.10
2022-08-19T13:51:35.784Z,6.25
2022-08-19T13:56:44.239Z,6.97
2022-08-19T14:01:47.042Z,7.20
2022-08-19T14:06:49.811Z,6.22
2022-08-19T14:11:53.829Z,5.40
2022-08-19T14:16:56.496Z,6.32
2022-08-19T14:21:59.583Z,5.53
2022-08-19T14:27:04.470Z,6.45
2022-08-19T14:32:08.114Z,7.28
2022-08-19T14:37:18.249Z,5.93
2022-08-19T14:42:22.402Z,5.53
2022-08-19T14:47:25.051Z,6.07
2022-08-19T14:52:28.596Z,6.32
2022-08-19T14:57:32.704Z,6.80
2022-08-19T15:02:35.598Z,6.45
2022-08-19T15:07:38.683Z,6.00
2022-08-19T15:12:43.793Z,6.82
2022-08-19T15:17:47.484Z,6.25
2022-08-19T15:22:50.489Z,16.65
2022-08-19T15:27:54.921Z,21.48
2022-08-19T15:32:59.935Z,17.17
2022-08-19T15:38:03.244Z,18.95
2022-08-19T15:43:07.471Z,16.38
2022-08-19T15:48:10.095Z,15.23
2022-08-19T15:53:13.843Z,14.43
2022-08-19T15:58:37.404Z,15.40
2022-08-19T16:03:57.587Z,13.98
2022-08-19T16:09:03.921Z,13.98
2022-08-19T16:14:09.643Z,12.30
2022-08-19T16:19:13.529Z,13.38
2022-08-19T16:24:19.556Z,14.60
2022-08-19T16:29:33.429Z,14.98
2022-08-19T16:34:39.146Z,15.98
2022-08-19T16:39:44.312Z,14.40
2022-08-19T16:44:48.445Z,13.15
2022-08-19T16:49:54.165Z,13.00
2022-08-19T16:54:58.299Z,8.95
2022-08-19T17:00:08.308Z,10.55
2022-08-19T17:05:11.761Z,9.82
2022-08-19T17:10:14.754Z,8.43
2022-08-19T17:15:19.489Z,9.93
2022-08-19T17:20:22.534Z,9.43
2022-08-19T17:25:25.891Z,11.73
2022-08-19T17:30:31.813Z,11.63
2022-08-19T17:35:35.523Z,13.25
2022-08-19T17:40:38.762Z,14.25
2022-08-19T17:45:45.382Z,15.75
2022-08-19T17:50:48.057Z,15.02
2022-08-19T17:55:50.996Z,14.85
2022-08-19T18:00:55.627Z,16.17
2022-08-19T18:05:59.407Z,16.15
2022-08-19T18:11:02.066Z,16.42
2022-08-19T18:21:10.577Z,14.57
2022-08-19T18:26:13.578Z,15.70
2022-08-19T18:31:17.745Z,15.07
2022-08-19T18:36:50.048Z,14.93
2022-08-19T18:42:02.625Z,16.42
2022-08-19T18:47:24.684Z,15.13
2022-08-19T18:52:27.314Z,13.60
2022-08-19T18:57:30.092Z,15.25
2022-08-19T19:02:39.490Z,15.02
2022-08-19T19:07:42.618Z,16.08
2022-08-19T19:12:45.560Z,15.43
2022-08-19T19:17:50.048Z,17.38
2022-08-19T19:22:58.231Z,17.25
2022-08-19T19:28:02.559Z,17.17
2022-08-19T19:33:07.821Z,17.88
2022-08-19T19:38:10.605Z,17.40
2022-08-19T19:48:19.581Z,16.60
2022-08-19T19:53:22.780Z,15.98
2022-08-19T19:58:28.408Z,15.38
2022-08-19T20:03:33.693Z,14.90
2022-08-19T20:08:54.475Z,13.88
2022-08-19T20:13:57.079Z,15.45
2022-08-19T20:19:03.624Z,15.77
2022-08-19T20:24:09.833Z,14.63
2022-08-19T20:29:35.823Z,14.85
2022-08-19T20:34:37.314Z,15.15
2022-08-19T20:39:40.039Z,16.08
2022-08-19T20:44:42.940Z,14.85
2022-08-19T20:49:47.487Z,15.38
2022-08-19T20:54:50.196Z,16.42
2022-08-19T21:04:58.981Z,16.85
2022-08-19T21:10:02.924Z,15.20
2022-08-19T21:15:08.531Z,14.63
2022-08-19T21:20:13.090Z,14.80
2022-08-19T21:25:17.012Z,13.68
2022-08-19T21:30:19.872Z,14.05
2022-08-19T21:35:24.342Z,17.63
2022-08-19T21:40:27.704Z,16.85
2022-08-19T21:45:30.695Z,7.60
2022-08-19T21:50:35.297Z,6.63
2022-08-19T21:55:38.075Z,7.18
2022-08-19T22:00:41.026Z,7.68
2022-08-19T22:05:45.807Z,7.65
2022-08-19T22:10:49.633Z,7.85
2022-08-19T22:15:53.267Z,7.90
2022-08-19T22:20:57.217Z,8.32
2022-08-19T22:26:01.664Z,8.95
2022-08-19T22:31:04.566Z,8.73
2022-08-19T22:41:12.513Z,8.23
2022-08-19T22:46:17.592Z,9.20
2022-08-19T22:51:39.175Z,9.40
2022-08-19T22:56:43.426Z,9.80
2022-08-19T23:01:46.674Z,9.75
2022-08-19T23:06:52.951Z,9.32
2022-08-19T23:11:56.058Z,9.80
2022-08-19T23:16:59.315Z,10.45
2022-08-19T23:22:05.212Z,11.07
2022-08-19T23:27:25.540Z,10.77
2022-08-19T23:32:28.116Z,11.13
2022-08-19T23:37:32.101Z,11.00
2022-08-19T23:42:35.456Z,11.20
2022-08-19T23:47:41.344Z,11.57
2022-08-19T23:52:50.299Z,11.52
2022-08-19T23:57:53.164Z,11.18
